Time;durP1;ratioP1;P1;durP2;ratioP2;P2;SDS_P1;SDS_P2;PMS_P1;PMS_P2;Temp;Humidity;BMP_temperature;BMP_pressure;BME280_temperature;BME280_humidity;BME280_pressure;Samples;Min_cycle;Max_cycle;Signal;HPM_P1;HPM_P2
2023/07/23 00:00:34;;;;;;;9.98;7.05;;;16.90;99.90;;;;;;4952717;29;20035;-84
2023/07/23 00:03:00;;;;;;;9.30;7.03;;;16.80;99.90;;;;;;4952703;29;20035;-84
2023/07/23 00:05:26;;;;;;;10.52;7.60;;;16.90;99.90;;;;;;4954098;28;20375;-84
2023/07/23 00:07:55;;;;;;;9.05;7.60;;;16.90;99.90;;;;;;4953659;29;20047;-84
2023/07/23 00:10:21;;;;;;;9.45;8.23;;;16.80;99.90;;;;;;4953365;29;20031;-84
2023/07/23 00:12:46;;;;;;;9.23;7.40;;;16.80;99.90;;;;;;4953412;29;20039;-84
2023/07/23 00:15:12;;;;;;;8.85;8.02;;;16.80;99.90;;;;;;4953596;29;20023;-84
2023/07/23 00:17:39;;;;;;;9.45;7.95;;;16.80;99.90;;;;;;4952052;29;20475;-84
2023/07/23 00:20:09;;;;;;;10.65;8.07;;;16.80;99.90;;;;;;4952616;29;20039;-84
2023/07/23 00:22:35;;;;;;;14.05;10.10;;;16.80;99.90;;;;;;4951919;29;20468;-84
2023/07/23 00:25:01;;;;;;;12.48;8.57;;;16.80;99.90;;;;;;4952435;29;20085;-84
2023/07/23 00:27:27;;;;;;;12.18;8.68;;;16.70;99.90;;;;;;4952601;29;20028;-84
2023/07/23 00:29:53;;;;;;;9.75;8.75;;;16.70;99.90;;;;;;4951476;29;20494;-84
2023/07/23 00:32:18;;;;;;;12.63;8.77;;;16.90;99.90;;;;;;4952751;29;20097;-83
2023/07/23 00:34:44;;;;;;;10.07;8.43;;;16.70;99.90;;;;;;4952299;29;20527;-83
2023/07/23 00:37:10;;;;;;;13.65;8.82;;;16.80;99.90;;;;;;4951842;29;20034;-84
2023/07/23 00:39:35;;;;;;;9.68;8.20;;;16.70;99.90;;;;;;4952238;29;20530;-84
2023/07/23 00:42:01;;;;;;;11.30;7.95;;;16.70;99.90;;;;;;4952544;29;20391;-84
2023/07/23 00:44:27;;;;;;;10.82;8.35;;;16.80;99.90;;;;;;4951759;29;20051;-84
2023/07/23 00:46:53;;;;;;;12.60;8.90;;;16.70;99.90;;;;;;4952847;29;20375;-84
2023/07/23 00:49:19;;;;;;;14.27;9.10;;;16.70;99.90;;;;;;4953862;29;20523;-84
2023/07/23 00:51:45;;;;;;;9.43;8.32;;;17.20;99.90;;;;;;4953056;29;20059;-84
2023/07/23 00:54:13;;;;;;;9.40;8.43;;;16.80;99.90;;;;;;4953704;28;20055;-84
2023/07/23 00:56:40;;;;;;;12.85;9.30;;;17.40;99.90;;;;;;4952590;29;20031;-84
2023/07/23 00:59:08;;;;;;;11.60;8.77;;;16.70;99.90;;;;;;4951668;29;20027;-84
2023/07/23 01:01:33;;;;;;;11.77;7.95;;;16.80;99.90;;;;;;4951939;29;20031;-84
2023/07/23 01:03:59;;;;;;;11.93;8.93;;;16.80;99.90;;;;;;4952077;29;20498;-84
2023/07/23 01:06:27;;;;;;;16.25;10.35;;;17.30;99.90;;;;;;4951645;29;20031;-84
2023/07/23 01:08:55;;;;;;;12.52;9.35;;;16.80;99.90;;;;;;4951775;29;20035;-86
2023/07/23 01:11:22;;;;;;;18.30;9.52;;;16.80;99.90;;;;;;4951601;29;20041;-84
2023/07/23 01:13:51;;;;;;;12.40;9.30;;;16.80;99.90;;;;;;4951808;29;20767;-84
2023/07/23 01:16:17;;;;;;;10.52;9.18;;;16.80;99.90;;;;;;4952274;29;20019;-84
2023/07/23 01:18:43;;;;;;;9.20;8.30;;;16.80;99.90;;;;;;4953360;28;20031;-84
2023/07/23 01:21:14;;;;;;;11.43;8.93;;;16.80;99.90;;;;;;4955465;29;20058;-84
2023/07/23 01:23:40;;;;;;;10.73;8.70;;;16.80;99.90;;;;;;4955103;29;20038;-83
2023/07/23 01:26:07;;;;;;;16.52;9.18;;;16.80;99.90;;;;;;4955134;29;20423;-84
2023/07/23 01:28:33;;;;;;;9.77;8.27;;;16.90;99.90;;;;;;4956570;29;20043;-84
2023/07/23 01:30:59;;;;;;;12.15;9.02;;;16.80;99.90;;;;;;4956873;29;20027;-84
2023/07/23 01:33:25;;;;;;;13.73;8.50;;;16.90;99.90;;;;;;4956292;29;20031;-84
2023/07/23 01:35:54;;;;;;;14.07;8.65;;;16.90;99.90;;;;;;4956726;29;20054;-84
2023/07/23 01:38:21;;;;;;;9.57;8.20;;;17.10;99.90;;;;;;4956950;29;20024;-84
2023/07/23 01:40:47;;;;;;;10.25;9.13;;;16.90;99.90;;;;;;4955421;28;20023;-85
2023/07/23 01:43:13;;;;;;;10.88;8.27;;;16.90;99.90;;;;;;4956779;28;20023;-85
2023/07/23 01:45:46;;;;;;;11.80;8.63;;;16.90;99.90;;;;;;4956580;29;20034;-85
2023/07/23 01:48:13;;;;;;;14.85;8.15;;;16.90;99.90;;;;;;4955965;28;20187;-85
2023/07/23 01:50:39;;;;;;;11.10;8.43;;;17.00;99.90;;;;;;4956193;29;20023;-84
2023/07/23 01:53:05;;;;;;;13.20;9.00;;;17.00;99.90;;;;;;4956384;28;20530;-84
2023/07/23 01:55:31;;;;;;;9.73;8.20;;;17.30;99.90;;;;;;4955500;28;20502;-84
2023/07/23 01:57:56;;;;;;;8.70;7.90;;;16.90;99.90;;;;;;4956703;29;20114;-85
2023/07/23 02:00:22;;;;;;;9.77;8.52;;;16.90;99.90;;;;;;4956787;29;20030;-85
2023/07/23 02:02:47;;;;;;;9.13;6.90;;;16.90;99.90;;;;;;4955067;29;20608;-84
2023/07/23 02:05:17;;;;;;;8.82;7.45;;;16.90;99.90;;;;;;4956375;29;20076;-85
2023/07/23 02:07:43;;;;;;;11.07;8.15;;;16.90;99.90;;;;;;4955013;29;20035;-85
2023/07/23 02:10:10;;;;;;;9.43;7.38;;;16.90;99.90;;;;;;4956213;29;20039;-85
2023/07/23 02:12:35;;;;;;;13.90;7.95;;;16.90;99.90;;;;;;4956092;29;20023;-83
2023/07/23 02:15:01;;;;;;;12.85;7.60;;;16.90;99.90;;;;;;4955665;29;20494;-83
2023/07/23 02:17:27;;;;;;;10.32;7.80;;;16.90;99.90;;;;;;4956250;29;20023;-83
2023/07/23 02:19:52;;;;;;;16.30;7.82;;;16.90;99.90;;;;;;4955758;29;20521;-83
2023/07/23 02:22:18;;;;;;;8.35;7.57;;;16.90;99.90;;;;;;4955129;29;20062;-83
2023/07/23 02:24:44;;;;;;;9.88;7.82;;;17.00;99.90;;;;;;4955636;29;20029;-83
2023/07/23 02:27:10;;;;;;;11.85;7.65;;;16.80;99.90;;;;;;4955961;29;20031;-83
2023/07/23 02:29:36;;;;;;;10.57;7.95;;;17.50;99.90;;;;;;4955044;28;20035;-83
2023/07/23 02:32:02;;;;;;;10.98;7.85;;;16.90;99.90;;;;;;4955866;29;20023;-83
2023/07/23 02:34:28;;;;;;;9.05;7.95;;;16.90;99.90;;;;;;4955710;29;20479;-83
2023/07/23 02:36:54;;;;;;;12.98;7.00;;;16.90;99.90;;;;;;4955062;29;20031;-82
2023/07/23 02:39:19;;;;;;;11.02;8.13;;;17.20;99.90;;;;;;4955568;29;20102;-83
2023/07/23 02:41:45;;;;;;;8.95;7.25;;;16.90;99.90;;;;;;4955698;29;20089;-83
2023/07/23 02:44:12;;;;;;;11.55;8.07;;;16.80;99.90;;;;;;4954946;29;20042;-83
2023/07/23 02:46:38;;;;;;;15.88;8.38;;;16.90;99.90;;;;;;4955413;29;20031;-83
2023/07/23 02:49:04;;;;;;;12.98;8.15;;;16.90;99.90;;;;;;4955581;29;20439;-83
2023/07/23 02:51:29;;;;;;;10.48;7.90;;;16.90;99.90;;;;;;4954497;29;20611;-83
2023/07/23 02:53:55;;;;;;;8.82;6.90;;;16.90;99.90;;;;;;4955188;28;20051;-83
2023/07/23 02:56:20;;;;;;;13.95;7.60;;;17.40;99.90;;;;;;4955489;29;20066;-83
2023/07/23 02:58:46;;;;;;;11.80;7.40;;;17.20;99.90;;;;;;4954568;29;20023;-83
2023/07/23 03:01:12;;;;;;;8.95;6.95;;;16.90;99.90;;;;;;4955327;29;20034;-84
2023/07/23 03:03:37;;;;;;;11.77;7.68;;;17.20;99.90;;;;;;4955229;29;20035;-84
2023/07/23 03:06:06;;;;;;;8.43;7.32;;;16.80;99.90;;;;;;4954961;29;20491;-83
2023/07/23 03:08:32;;;;;;;9.93;7.32;;;17.00;99.90;;;;;;4954641;29;20086;-83
2023/07/23 03:10:57;;;;;;;10.65;7.32;;;16.80;99.90;;;;;;4954350;29;20023;-83
2023/07/23 03:13:23;;;;;;;13.38;7.68;;;16.80;99.90;;;;;;4955131;29;20183;-84
2023/07/23 03:15:49;;;;;;;7.88;7.18;;;17.50;99.90;;;;;;4954928;29;20107;-83
2023/07/23 03:18:15;;;;;;;8.77;7.20;;;16.80;99.90;;;;;;4955420;29;20035;-83
2023/07/23 03:20:40;;;;;;;10.07;7.80;;;16.80;99.90;;;;;;4959843;29;20054;-83
2023/07/23 03:23:06;;;;;;;9.02;7.72;;;16.80;99.90;;;;;;4956383;29;20600;-83
2023/07/23 03:25:31;;;;;;;8.50;7.57;;;16.80;99.90;;;;;;4954067;29;20114;-83
2023/07/23 03:27:59;;;;;;;9.45;7.18;;;16.80;99.90;;;;;;4954761;29;20066;-83
2023/07/23 03:30:28;;;;;;;7.93;7.22;;;16.80;99.90;;;;;;4954820;29;20062;-82
2023/07/23 03:32:54;;;;;;;11.00;7.50;;;16.80;99.90;;;;;;4954199;29;20082;-83
2023/07/23 03:35:21;;;;;;;8.32;7.18;;;16.80;99.90;;;;;;4955015;29;20063;-83
2023/07/23 03:37:47;;;;;;;9.75;7.25;;;17.00;99.90;;;;;;4954690;29;20027;-83
2023/07/23 03:40:12;;;;;;;9.40;7.18;;;16.80;99.90;;;;;;4953779;28;20046;-83
2023/07/23 03:42:38;;;;;;;8.93;7.13;;;16.80;99.90;;;;;;4954609;29;20027;-83
2023/07/23 03:45:04;;;;;;;8.35;7.00;;;16.90;99.90;;;;;;4954785;29;20491;-83
2023/07/23 03:47:30;;;;;;;10.38;7.95;;;16.80;99.90;;;;;;4953490;29;20035;-83
2023/07/23 03:49:55;;;;;;;9.85;7.07;;;16.80;99.90;;;;;;4954684;29;20027;-83
2023/07/23 03:52:22;;;;;;;11.23;7.28;;;16.80;99.90;;;;;;4954703;28;20023;-83
2023/07/23 03:54:48;;;;;;;11.23;7.50;;;16.80;99.90;;;;;;4953740;29;20055;-83
2023/07/23 03:57:13;;;;;;;8.13;7.32;;;16.80;99.90;;;;;;4954499;29;20027;-84
2023/07/23 03:59:41;;;;;;;8.05;6.65;;;16.70;99.90;;;;;;4954299;29;20031;-83
2023/07/23 04:02:07;;;;;;;9.05;6.15;;;16.80;99.90;;;;;;4953795;29;20027;-83
2023/07/23 04:04:34;;;;;;;8.73;7.32;;;16.80;99.90;;;;;;4953955;29;20463;-83
2023/07/23 04:07:00;;;;;;;9.70;7.03;;;16.80;99.90;;;;;;4954782;29;20035;-84
2023/07/23 04:09:26;;;;;;;9.65;7.38;;;16.80;99.90;;;;;;4953779;29;20361;-83
2023/07/23 04:11:51;;;;;;;7.75;6.75;;;16.80;99.90;;;;;;4953950;29;20045;-83
2023/07/23 04:14:17;;;;;;;10.48;7.70;;;16.80;99.90;;;;;;4956906;28;20081;-84
2023/07/23 04:16:42;;;;;;;11.82;7.00;;;16.80;99.90;;;;;;4958113;28;20034;-83
2023/07/23 04:19:08;;;;;;;8.88;7.00;;;16.80;99.90;;;;;;4945725;29;20024;-84
2023/07/23 04:21:33;;;;;;;12.85;6.85;;;16.80;99.90;;;;;;4952989;29;20099;-84
2023/07/23 04:24:00;;;;;;;8.32;6.82;;;16.80;99.90;;;;;;4954241;29;20053;-83
2023/07/23 04:26:30;;;;;;;8.82;6.05;;;16.80;99.90;;;;;;4954301;29;20027;-83
2023/07/23 04:28:56;;;;;;;9.43;6.88;;;16.80;99.90;;;;;;4952611;29;20040;-83
2023/07/23 04:31:22;;;;;;;10.18;6.57;;;16.80;99.90;;;;;;4953949;29;20098;-83
2023/07/23 04:33:47;;;;;;;9.85;6.38;;;16.90;99.90;;;;;;4953469;29;20154;-84
2023/07/23 04:36:14;;;;;;;8.65;6.20;;;16.90;99.90;;;;;;4953720;29;20050;-83
2023/07/23 04:38:41;;;;;;;11.13;5.93;;;16.90;99.90;;;;;;4954049;29;20034;-83
2023/07/23 04:41:07;;;;;;;7.72;5.85;;;16.90;99.90;;;;;;4953884;29;20023;-83
2023/07/23 04:43:35;;;;;;;8.07;6.10;;;16.90;99.90;;;;;;4953051;29;20463;-83
2023/07/23 04:46:00;;;;;;;13.00;6.28;;;16.90;99.90;;;;;;4954039;29;20114;-83
2023/07/23 04:48:26;;;;;;;8.93;6.03;;;16.90;99.90;;;;;;4953943;29;20126;-83
2023/07/23 04:50:55;;;;;;;6.65;5.95;;;16.90;99.90;;;;;;4953095;29;20019;-82
2023/07/23 04:53:23;;;;;;;7.47;6.38;;;16.90;99.90;;;;;;4956100;28;20067;-83
2023/07/23 04:55:51;;;;;;;7.32;5.40;;;16.90;99.90;;;;;;4957565;29;20106;-83
2023/07/23 04:58:16;;;;;;;10.00;6.47;;;16.90;99.90;;;;;;4957025;29;20027;-83
2023/07/23 05:00:42;;;;;;;7.50;6.25;;;16.90;99.90;;;;;;4957191;29;20383;-84
2023/07/23 05:03:08;;;;;;;10.95;6.88;;;17.60;99.90;;;;;;4957782;29;20030;-83
2023/07/23 05:05:33;;;;;;;7.70;6.13;;;16.90;99.90;;;;;;4956737;29;20046;-83
2023/07/23 05:07:59;;;;;;;12.07;6.57;;;16.80;99.90;;;;;;4957515;29;20039;-83
2023/07/23 05:10:24;;;;;;;10.38;6.45;;;16.90;99.90;;;;;;4963934;29;20019;-84
2023/07/23 05:12:50;;;;;;;9.40;6.20;;;16.80;99.90;;;;;;4957341;29;20118;-83
2023/07/23 05:15:16;;;;;;;14.88;7.05;;;16.70;99.90;;;;;;4957282;29;20030;-83
2023/07/23 05:17:42;;;;;;;11.57;6.20;;;16.70;99.90;;;;;;4956711;29;20024;-83
2023/07/23 05:20:08;;;;;;;13.10;6.95;;;16.70;99.90;;;;;;4957226;29;20031;-83
2023/07/23 05:22:38;;;;;;;9.23;6.00;;;16.70;99.90;;;;;;4956972;29;20476;-83
2023/07/23 05:25:04;;;;;;;13.52;6.93;;;17.10;99.90;;;;;;4956411;29;20050;-83
2023/07/23 05:27:30;;;;;;;18.70;7.95;;;16.60;99.90;;;;;;4956732;29;20027;-83
2023/07/23 05:29:56;;;;;;;12.43;7.18;;;17.30;99.90;;;;;;4956973;29;20035;-83
2023/07/23 05:32:22;;;;;;;16.23;6.53;;;16.70;99.90;;;;;;4956380;29;20384;-83
2023/07/23 05:34:47;;;;;;;9.98;6.57;;;16.60;99.90;;;;;;4956401;29;20498;-83
2023/07/23 05:37:13;;;;;;;12.40;6.50;;;16.60;99.90;;;;;;4957143;29;20038;-83
2023/07/23 05:39:39;;;;;;;9.55;6.10;;;16.50;99.90;;;;;;4955673;29;20545;-83
2023/07/23 05:42:05;;;;;;;14.65;7.00;;;16.60;99.90;;;;;;4956841;29;20027;-83
2023/07/23 05:44:31;;;;;;;13.90;5.72;;;16.60;99.90;;;;;;4956505;29;20055;-83
2023/07/23 05:46:57;;;;;;;10.75;5.95;;;16.60;99.90;;;;;;4955919;29;20038;-83
2023/07/23 05:49:24;;;;;;;11.75;7.55;;;16.60;99.90;;;;;;4956697;29;20487;-83
2023/07/23 05:51:50;;;;;;;10.77;6.53;;;16.90;99.90;;;;;;4956651;29;20023;-83
2023/07/23 05:54:15;;;;;;;8.25;6.25;;;16.50;99.90;;;;;;4955785;28;20384;-83
2023/07/23 05:56:41;;;;;;;9.52;6.07;;;16.50;99.90;;;;;;4956261;29;20027;-83
2023/07/23 05:59:06;;;;;;;11.63;6.80;;;16.40;99.90;;;;;;4956822;29;20364;-83
2023/07/23 06:01:32;;;;;;;13.85;6.28;;;16.80;99.90;;;;;;4956689;29;20494;-85
2023/07/23 06:03:58;;;;;;;10.48;6.10;;;16.30;99.90;;;;;;4957845;28;20427;-82
2023/07/23 06:06:23;;;;;;;20.27;7.30;;;16.20;99.90;;;;;;4959874;29;20038;-83
2023/07/23 06:08:49;;;;;;;16.15;6.68;;;16.20;99.90;;;;;;4955314;29;20114;-83
2023/07/23 06:11:15;;;;;;;17.80;7.30;;;16.20;99.90;;;;;;4956774;29;20078;-84
2023/07/23 06:13:40;;;;;;;11.93;6.55;;;16.20;99.90;;;;;;4955429;29;20209;-84
2023/07/23 06:16:06;;;;;;;10.88;6.32;;;16.10;99.90;;;;;;4955212;29;20027;-85
2023/07/23 06:18:35;;;;;;;12.00;6.80;;;16.10;99.90;;;;;;4955928;29;20034;-84
2023/07/23 06:21:01;;;;;;;7.53;5.57;;;16.10;99.90;;;;;;4955478;29;20023;-84
2023/07/23 06:23:26;;;;;;;8.90;6.60;;;16.10;99.90;;;;;;4955949;29;20035;-84
2023/07/23 06:25:55;;;;;;;12.45;6.65;;;16.20;99.90;;;;;;4955865;29;20030;-84
2023/07/23 06:28:22;;;;;;;9.13;6.00;;;16.10;99.90;;;;;;4955119;29;20038;-85
2023/07/23 06:30:51;;;;;;;9.15;5.65;;;16.10;99.90;;;;;;4955778;29;20115;-84
2023/07/23 06:33:16;;;;;;;8.75;6.60;;;16.10;99.90;;;;;;4955762;29;20550;-84
2023/07/23 06:35:46;;;;;;;8.30;7.40;;;16.10;99.90;;;;;;4954906;29;20031;-84
2023/07/23 06:38:12;;;;;;;7.68;6.43;;;16.80;99.90;;;;;;4955710;29;20032;-85
2023/07/23 06:40:43;;;;;;;8.77;6.85;;;16.20;99.90;;;;;;4955256;29;20364;-85
2023/07/23 06:43:09;;;;;;;8.27;7.20;;;16.20;99.90;;;;;;4954990;29;20023;-85
2023/07/23 06:45:34;;;;;;;15.32;6.55;;;16.20;99.90;;;;;;4955275;29;20030;-84
2023/07/23 06:48:00;;;;;;;10.35;6.70;;;16.20;99.90;;;;;;4955942;29;20083;-84
2023/07/23 06:50:25;;;;;;;12.10;6.78;;;16.20;99.90;;;;;;4954592;29;20401;-85
2023/07/23 06:52:51;;;;;;;10.75;6.78;;;16.20;99.90;;;;;;4955137;28;20047;-85
2023/07/23 06:55:16;;;;;;;14.07;5.95;;;16.20;99.90;;;;;;4955644;29;20086;-84
2023/07/23 06:57:42;;;;;;;9.20;6.30;;;16.20;99.90;;;;;;4954222;29;20057;-85
2023/07/23 07:00:08;;;;;;;10.15;7.35;;;16.20;99.90;;;;;;4955276;29;20106;-85
2023/07/23 07:02:34;;;;;;;14.18;7.70;;;16.20;99.90;;;;;;4955151;29;20416;-85
2023/07/23 07:05:00;;;;;;;7.15;6.38;;;16.20;99.90;;;;;;4945641;28;20027;-84
2023/07/23 07:07:25;;;;;;;8.98;6.45;;;16.20;99.90;;;;;;4939727;28;20086;-85
2023/07/23 07:09:53;;;;;;;11.45;7.53;;;16.20;99.90;;;;;;4954407;28;20066;-84
2023/07/23 07:12:18;;;;;;;11.23;7.20;;;16.20;99.90;;;;;;4954188;28;20098;-85
2023/07/23 07:14:44;;;;;;;17.70;7.95;;;16.40;99.90;;;;;;4954293;28;20110;-85
2023/07/23 07:17:09;;;;;;;9.32;7.03;;;16.30;99.90;;;;;;4953582;28;20024;-84
2023/07/23 07:19:35;;;;;;;14.07;7.03;;;16.30;99.90;;;;;;4956764;28;20097;-84
2023/07/23 07:22:01;;;;;;;11.77;7.13;;;16.30;99.90;;;;;;4954413;28;20045;-85
2023/07/23 07:24:27;;;;;;;8.65;6.50;;;16.20;99.90;;;;;;4953523;29;20057;-83
2023/07/23 07:26:53;;;;;;;6.97;6.30;;;16.30;99.90;;;;;;4944922;28;20488;-83
2023/07/23 07:29:18;;;;;;;7.00;6.30;;;16.30;99.90;;;;;;4944451;28;20066;-84
2023/07/23 07:31:45;;;;;;;11.32;7.22;;;16.20;99.90;;;;;;4950581;28;20023;-85
2023/07/23 07:34:11;;;;;;;9.95;6.40;;;16.30;99.90;;;;;;4941937;28;20106;-84
2023/07/23 07:36:38;;;;;;;7.00;5.57;;;16.30;99.90;;;;;;4953792;28;20031;-84
2023/07/23 07:39:04;;;;;;;11.35;6.13;;;16.90;99.90;;;;;;4953335;28;20395;-83
2023/07/23 07:41:30;;;;;;;9.68;6.10;;;16.30;99.90;;;;;;4952711;28;20030;-84
2023/07/23 07:43:55;;;;;;;10.85;6.55;;;16.40;99.90;;;;;;4952979;28;20438;-82
2023/07/23 07:46:21;;;;;;;11.38;6.65;;;16.40;99.90;;;;;;4951706;28;20480;-83
2023/07/23 07:48:47;;;;;;;9.75;6.53;;;16.40;99.90;;;;;;4948248;28;20428;-84
2023/07/23 07:51:13;;;;;;;14.07;6.60;;;16.40;99.90;;;;;;4935897;28;20404;-85
2023/07/23 07:53:38;;;;;;;11.95;5.82;;;16.50;99.90;;;;;;4937685;28;20055;-85
2023/07/23 07:56:05;;;;;;;8.55;6.57;;;16.50;99.90;;;;;;4937417;28;20042;-85
2023/07/23 07:58:31;;;;;;;9.02;5.75;;;16.50;99.90;;;;;;4946268;28;20542;-85
2023/07/23 08:00:58;;;;;;;11.38;5.93;;;16.50;99.90;;;;;;4953397;28;20035;-83
2023/07/23 08:03:26;;;;;;;7.47;5.63;;;16.50;99.90;;;;;;4953857;28;20029;-83
2023/07/23 08:05:53;;;;;;;8.75;5.60;;;16.50;99.90;;;;;;4953650;28;20034;-81
2023/07/23 08:08:31;;;;;;;10.63;6.90;;;16.50;99.90;;;;;;4952595;28;20110;-82
2023/07/23 08:10:58;;;;;;;11.50;5.82;;;16.50;99.90;;;;;;4954158;28;20027;-82
2023/07/23 08:13:24;;;;;;;9.48;5.93;;;16.50;99.90;;;;;;4953379;28;20102;-81
2023/07/23 08:15:51;;;;;;;10.02;6.22;;;16.50;99.90;;;;;;4953773;28;20042;-82
2023/07/23 08:18:17;;;;;;;7.53;5.72;;;16.50;99.90;;;;;;4953921;28;20110;-82
2023/07/23 08:20:43;;;;;;;6.68;5.97;;;16.50;99.90;;;;;;4953019;28;20110;-82
2023/07/23 08:23:09;;;;;;;8.48;6.57;;;16.60;99.90;;;;;;4953328;28;20135;-81
2023/07/23 08:25:36;;;;;;;7.47;6.25;;;16.60;99.90;;;;;;4953506;28;20114;-82
2023/07/23 08:28:02;;;;;;;8.80;5.53;;;16.60;99.90;;;;;;4956392;28;20039;-85
2023/07/23 08:30:29;;;;;;;7.45;5.97;;;16.60;99.90;;;;;;4958011;28;20046;-85
2023/07/23 08:32:56;;;;;;;6.55;5.43;;;16.60;99.90;;;;;;4957389;28;20479;-84
2023/07/23 08:35:23;;;;;;;8.85;6.45;;;16.70;99.90;;;;;;4952986;28;20035;-83
2023/07/23 08:37:49;;;;;;;6.63;6.03;;;16.60;99.90;;;;;;4943406;28;20038;-83
2023/07/23 08:40:15;;;;;;;7.15;5.90;;;16.70;99.90;;;;;;4953640;28;20098;-84
2023/07/23 08:42:51;;;;;;;7.50;5.90;;;16.70;99.90;;;;;;4957440;28;20044;-84
2023/07/23 08:45:41;;;;;;;15.02;6.32;;;16.70;99.90;;;;;;4949446;28;20019;-83
2023/07/23 08:48:15;;;;;;;7.28;6.40;;;16.70;99.90;;;;;;4956060;28;20068;-86
2023/07/23 08:50:44;;;;;;;8.32;5.85;;;16.70;99.90;;;;;;4956857;28;20039;-84
2023/07/23 08:53:11;;;;;;;8.32;6.22;;;16.70;99.90;;;;;;4954886;28;20039;-85
2023/07/23 08:55:41;;;;;;;6.88;6.18;;;16.80;99.90;;;;;;4950189;28;20495;-84
2023/07/23 08:58:07;;;;;;;5.70;5.15;;;16.80;99.90;;;;;;4957433;28;20110;-84
2023/07/23 09:00:34;;;;;;;9.25;5.78;;;16.80;99.90;;;;;;4956724;28;20027;-84
2023/07/23 09:03:03;;;;;;;8.45;6.13;;;16.80;99.90;;;;;;4953392;28;20134;-83
2023/07/23 09:05:32;;;;;;;7.22;6.20;;;16.80;99.90;;;;;;4944692;28;20039;-82
2023/07/23 09:07:58;;;;;;;7.38;5.80;;;16.80;99.90;;;;;;4953962;28;20024;-83
2023/07/23 09:10:24;;;;;;;7.82;6.65;;;16.90;99.90;;;;;;4949296;29;20031;-83
2023/07/23 09:12:49;;;;;;;7.82;6.07;;;16.90;99.90;;;;;;4954417;28;20558;-83
2023/07/23 09:15:15;;;;;;;7.55;6.15;;;16.90;99.90;;;;;;4952155;28;20035;-83
2023/07/23 09:17:41;;;;;;;7.63;6.05;;;16.90;99.90;;;;;;4947528;29;20078;-83
2023/07/23 09:20:10;;;;;;;7.82;6.25;;;16.90;99.90;;;;;;4952099;28;20028;-83
2023/07/23 09:22:36;;;;;;;8.75;6.53;;;17.00;99.90;;;;;;4948139;28;20031;-83
2023/07/23 09:25:02;;;;;;;5.82;5.32;;;17.20;99.90;;;;;;4943241;29;20024;-83
2023/07/23 09:27:38;;;;;;;7.10;6.40;;;17.00;99.90;;;;;;4944871;29;20419;-83
2023/07/23 09:30:04;;;;;;;7.53;6.28;;;16.90;99.90;;;;;;4940051;28;20499;-82
2023/07/23 09:32:30;;;;;;;6.63;5.82;;;17.00;99.90;;;;;;4941776;28;20023;-83
2023/07/23 09:34:57;;;;;;;6.20;5.65;;;16.90;99.90;;;;;;4943808;28;20400;-83
2023/07/23 09:37:26;;;;;;;7.90;6.13;;;17.00;99.90;;;;;;4953418;28;20027;-84
2023/07/23 09:39:59;;;;;;;6.30;5.70;;;16.90;99.90;;;;;;4949476;28;20487;-83
2023/07/23 09:42:25;;;;;;;6.18;5.38;;;16.90;99.90;;;;;;4941429;28;20130;-84
2023/07/23 09:44:51;;;;;;;6.22;5.63;;;16.90;99.90;;;;;;4943812;28;20504;-84
2023/07/23 09:47:27;;;;;;;9.48;6.05;;;16.90;99.90;;;;;;4941575;28;20106;-84
2023/07/23 09:49:53;;;;;;;7.53;5.28;;;16.80;99.90;;;;;;4944801;28;20186;-84
2023/07/23 09:52:22;;;;;;;8.07;5.53;;;16.80;99.90;;;;;;4947186;29;20031;-84
2023/07/23 09:54:49;;;;;;;7.75;5.22;;;16.80;99.90;;;;;;4953044;28;20320;-85
2023/07/23 09:57:15;;;;;;;5.80;5.13;;;16.80;99.90;;;;;;4949478;29;20020;-84
2023/07/23 09:59:42;;;;;;;5.70;5.03;;;16.70;99.90;;;;;;4948481;28;20673;-84
2023/07/23 10:02:09;;;;;;;6.15;5.55;;;16.70;99.90;;;;;;4955728;28;20078;-84
2023/07/23 10:04:37;;;;;;;6.72;6.13;;;16.70;99.90;;;;;;4952924;28;20028;-83
2023/07/23 10:07:04;;;;;;;8.73;6.03;;;16.70;99.90;;;;;;4944517;28;20066;-84
2023/07/23 10:09:30;;;;;;;7.45;6.75;;;16.70;99.90;;;;;;4951580;28;20493;-83
2023/07/23 10:11:56;;;;;;;8.10;6.88;;;16.70;99.90;;;;;;4943961;28;20027;-83
2023/07/23 10:14:22;;;;;;;7.20;6.50;;;16.80;99.90;;;;;;4952021;28;20413;-83
2023/07/23 10:16:49;;;;;;;7.75;6.95;;;16.80;99.90;;;;;;4939423;28;20028;-83
2023/07/23 10:19:19;;;;;;;7.63;6.93;;;16.80;99.90;;;;;;4943768;28;20063;-83
2023/07/23 10:21:49;;;;;;;8.02;7.22;;;16.90;99.90;;;;;;4941375;28;20110;-83
2023/07/23 10:24:14;;;;;;;10.13;7.97;;;16.90;99.90;;;;;;4944577;28;20126;-83
2023/07/23 10:26:42;;;;;;;9.15;7.78;;;17.00;99.90;;;;;;4944264;28;20027;-83
2023/07/23 10:29:11;;;;;;;8.63;7.72;;;17.00;99.90;;;;;;4946813;28;20440;-83
2023/07/23 10:31:38;;;;;;;9.88;7.65;;;17.00;99.90;;;;;;4940163;28;20027;-82
2023/07/23 10:34:25;;;;;;;8.55;7.18;;;17.10;99.90;;;;;;4943975;28;20030;-82
2023/07/23 10:37:09;;;;;;;8.27;7.53;;;17.20;99.90;;;;;;4943721;28;20069;-83
2023/07/23 10:39:43;;;;;;;8.90;8.10;;;17.30;99.90;;;;;;4940235;29;20027;-82
2023/07/23 10:42:09;;;;;;;8.98;7.82;;;17.30;99.90;;;;;;4949157;28;20480;-84
2023/07/23 10:44:38;;;;;;;7.90;7.15;;;17.30;99.90;;;;;;4958163;28;20144;-83
2023/07/23 10:47:33;;;;;;;8.60;7.70;;;17.40;99.90;;;;;;4954571;28;20447;-83
2023/07/23 10:50:11;;;;;;;9.05;8.18;;;17.40;99.90;;;;;;4953136;28;20436;-82
2023/07/23 10:52:37;;;;;;;9.73;8.20;;;17.40;99.90;;;;;;4959347;28;20023;-83
2023/07/23 10:55:03;;;;;;;12.48;8.60;;;17.50;99.90;;;;;;4993602;28;20080;-82
2023/07/23 10:57:30;;;;;;;8.73;7.93;;;17.50;99.90;;;;;;4993433;28;20038;-82
2023/07/23 10:59:56;;;;;;;10.30;8.77;;;17.50;99.90;;;;;;4993885;28;20026;-82
2023/07/23 11:02:29;;;;;;;8.88;7.97;;;17.50;99.90;;;;;;4987821;28;20025;-82
2023/07/23 11:04:58;;;;;;;8.23;7.53;;;17.60;99.90;;;;;;4981034;28;20034;-83
2023/07/23 11:07:28;;;;;;;8.20;7.45;;;17.90;99.90;;;;;;4981496;28;20098;-84
2023/07/23 11:09:55;;;;;;;8.15;7.43;;;17.70;99.90;;;;;;4976120;28;20169;-84
2023/07/23 11:12:23;;;;;;;9.00;8.20;;;17.70;99.90;;;;;;4986985;28;20072;-83
2023/07/23 11:14:50;;;;;;;8.82;8.07;;;17.80;99.90;;;;;;4992468;28;20512;-83
2023/07/23 11:17:16;;;;;;;8.63;7.82;;;17.90;99.90;;;;;;4993019;28;20030;-83
2023/07/23 11:19:46;;;;;;;8.70;7.78;;;18.30;99.90;;;;;;4992967;28;20029;-83
2023/07/23 11:22:12;;;;;;;10.85;7.07;;;18.40;99.90;;;;;;4981715;28;20058;-83
2023/07/23 11:24:38;;;;;;;7.80;6.97;;;18.10;99.90;;;;;;4991852;28;20030;-82
2023/07/23 11:27:04;;;;;;;8.85;7.18;;;18.10;99.90;;;;;;4982375;28;20553;-83
2023/07/23 11:29:30;;;;;;;7.32;6.68;;;18.10;99.90;;;;;;4978275;28;20034;-83
2023/07/23 11:31:56;;;;;;;7.43;6.72;;;18.50;99.90;;;;;;4985307;28;20101;-83
2023/07/23 11:34:24;;;;;;;7.45;6.82;;;18.50;99.90;;;;;;4992363;28;20121;-83
2023/07/23 11:36:55;;;;;;;7.50;6.90;;;18.10;99.90;;;;;;4981533;28;20512;-83
2023/07/23 11:39:23;;;;;;;8.38;7.68;;;18.10;99.90;;;;;;4985405;28;20398;-83
2023/07/23 11:41:49;;;;;;;9.20;8.32;;;18.10;99.90;;;;;;4984930;28;20101;-83
2023/07/23 11:44:15;;;;;;;8.15;7.35;;;18.20;99.90;;;;;;4981219;28;20101;-83
2023/07/23 11:46:41;;;;;;;8.43;7.55;;;18.30;99.90;;;;;;4996757;28;20385;-83
2023/07/23 11:49:13;;;;;;;10.20;9.02;;;18.30;99.90;;;;;;4994517;28;20030;-83
2023/07/23 11:51:39;;;;;;;9.05;8.10;;;18.70;99.90;;;;;;4976279;28;20023;-84
2023/07/23 11:54:08;;;;;;;11.35;8.77;;;18.40;99.90;;;;;;4972861;28;20093;-84
2023/07/23 11:56:45;;;;;;;9.05;8.07;;;18.40;99.90;;;;;;4983528;28;20439;-84
2023/07/23 11:59:13;;;;;;;8.65;7.78;;;18.40;99.90;;;;;;4980315;28;20394;-82
2023/07/23 12:01:40;;;;;;;11.50;8.73;;;18.40;99.90;;;;;;4985667;28;20030;-85
2023/07/23 12:04:07;;;;;;;6.82;6.22;;;18.50;99.90;;;;;;4986322;28;20106;-84
2023/07/23 12:06:35;;;;;;;6.25;5.75;;;18.80;99.90;;;;;;4991822;28;20026;-84
2023/07/23 12:09:04;;;;;;;6.53;5.93;;;18.70;99.90;;;;;;5004013;28;20053;-83
2023/07/23 12:11:32;;;;;;;8.43;6.68;;;18.80;99.90;;;;;;4991811;28;20030;-83
2023/07/23 12:14:02;;;;;;;6.30;5.88;;;18.80;99.90;;;;;;4985376;28;20027;-81
2023/07/23 12:16:35;;;;;;;6.65;6.03;;;18.90;99.90;;;;;;4984040;28;20030;-82
2023/07/23 12:19:03;;;;;;;5.43;4.93;;;19.00;99.90;;;;;;4979364;28;20026;-82
2023/07/23 12:21:28;;;;;;;5.55;5.05;;;19.00;99.90;;;;;;4982059;28;20391;-82
2023/07/23 12:23:54;;;;;;;6.30;5.80;;;19.00;99.90;;;;;;4985013;28;20057;-83
2023/07/23 12:26:20;;;;;;;6.38;5.80;;;19.00;99.90;;;;;;4997023;28;20019;-83
2023/07/23 12:28:45;;;;;;;6.53;5.93;;;18.80;99.90;;;;;;4982566;28;20041;-83
2023/07/23 12:31:11;;;;;;;6.65;6.15;;;19.30;99.90;;;;;;4984631;28;20367;-84
2023/07/23 12:33:36;;;;;;;6.20;5.70;;;19.00;99.90;;;;;;4985915;28;20450;-84
2023/07/23 12:36:03;;;;;;;7.22;6.35;;;19.10;99.90;;;;;;4984968;28;20030;-82
2023/07/23 12:38:29;;;;;;;5.75;5.25;;;19.20;99.90;;;;;;4988912;28;20019;-83
2023/07/23 12:40:54;;;;;;;6.20;5.60;;;19.30;99.90;;;;;;4982349;28;20357;-82